Time;durP1;ratioP1;P1;durP2;ratioP2;P2;SDS_P1;SDS_P2;PMS_P1;PMS_P2;Temp;Humidity;BMP_temperature;BMP_pressure;BME280_temperature;BME280_humidity;BME280_pressure;Samples;Min_cycle;Max_cycle;Signal;HPM_P1;HPM_P2
2022/07/02 00:00:12;;;;;;;14.27;12.25;;;;;;;;;;2087930;28;20040;-84
2022/07/02 00:01:31;;;;;;;15.32;12.77;;;;;;;;;;2089886;28;20659;-85
2022/07/02 00:02:52;;;;;;;13.57;12.38;;;;;;;;;;2089120;28;20127;-83
2022/07/02 00:04:12;;;;;;;13.68;12.32;;;;;;;;;;2098943;28;20024;-83
2022/07/02 00:05:31;;;;;;;13.88;12.18;;;;;;;;;;2092362;28;20494;-83
2022/07/02 00:06:51;;;;;;;14.88;12.32;;;;;;;;;;2090248;28;20067;-83
2022/07/02 00:08:12;;;;;;;14.20;12.73;;;;;;;;;;2089761;28;20028;-83
2022/07/02 00:09:30;;;;;;;14.55;13.18;;;;;;;;;;2089594;28;20494;-83
2022/07/02 00:10:51;;;;;;;19.23;12.55;;;;;;;;;;2088374;28;20506;-83
2022/07/02 00:12:10;;;;;;;14.40;13.10;;;;;;;;;;2088242;28;20021;-83
2022/07/02 00:13:29;;;;;;;15.25;13.75;;;;;;;;;;2092874;28;20025;-82
2022/07/02 00:14:55;;;;;;;15.43;13.27;;;;;;;;;;2089585;28;20037;-83
2022/07/02 00:16:14;;;;;;;15.82;13.85;;;;;;;;;;2092527;28;20033;-84
2022/07/02 00:17:33;;;;;;;14.40;12.98;;;;;;;;;;2090834;28;20033;-83
2022/07/02 00:18:52;;;;;;;17.52;14.52;;;;;;;;;;2089238;28;20049;-83
2022/07/02 00:20:11;;;;;;;15.18;13.68;;;;;;;;;;2090274;28;20461;-83
2022/07/02 00:21:30;;;;;;;18.20;14.52;;;;;;;;;;2092132;28;20490;-82
2022/07/02 00:22:50;;;;;;;16.08;14.25;;;;;;;;;;2090830;28;20737;-83
2022/07/02 00:24:09;;;;;;;15.43;13.05;;;;;;;;;;2089460;28;20048;-82
2022/07/02 00:25:31;;;;;;;14.88;13.43;;;;;;;;;;2086036;28;20362;-82
2022/07/02 00:26:54;;;;;;;18.08;13.65;;;;;;;;;;2088554;28;21279;-82
2022/07/02 00:28:15;;;;;;;15.20;13.70;;;;;;;;;;2090119;28;20703;-82
2022/07/02 00:29:41;;;;;;;16.30;14.68;;;;;;;;;;2087921;28;20687;-82
2022/07/02 00:31:00;;;;;;;14.77;13.35;;;;;;;;;;2086756;28;20036;-82
2022/07/02 00:32:19;;;;;;;14.35;13.10;;;;;;;;;;2088908;28;20017;-82
2022/07/02 00:33:39;;;;;;;14.48;13.20;;;;;;;;;;2089330;28;20020;-82
2022/07/02 00:35:00;;;;;;;16.17;14.40;;;;;;;;;;2084127;28;20071;-82
2022/07/02 00:36:22;;;;;;;17.20;14.13;;;;;;;;;;2088968;28;20025;-82
2022/07/02 00:37:41;;;;;;;18.83;14.38;;;;;;;;;;2086379;28;20029;-81
2022/07/02 00:39:00;;;;;;;15.95;13.55;;;;;;;;;;2089123;28;20107;-84
2022/07/02 00:40:20;;;;;;;17.35;14.98;;;;;;;;;;2089149;28;20049;-82
2022/07/02 00:41:39;;;;;;;15.90;14.38;;;;;;;;;;2091242;28;20029;-81
2022/07/02 00:42:59;;;;;;;15.15;13.35;;;;;;;;;;2086485;28;20024;-79
2022/07/02 00:44:18;;;;;;;15.43;13.82;;;;;;;;;;2089542;28;20029;-81
2022/07/02 00:45:37;;;;;;;16.25;14.55;;;;;;;;;;2087652;28;20119;-81
2022/07/02 00:46:58;;;;;;;17.30;13.35;;;;;;;;;;2089278;28;20040;-82
2022/07/02 00:48:17;;;;;;;20.05;14.30;;;;;;;;;;2090470;28;20025;-81
2022/07/02 00:49:37;;;;;;;16.42;14.77;;;;;;;;;;2089982;28;20029;-81
2022/07/02 00:50:56;;;;;;;18.20;14.25;;;;;;;;;;2088185;28;20107;-81
2022/07/02 00:52:15;;;;;;;14.75;13.07;;;;;;;;;;2089461;28;20029;-81
2022/07/02 00:53:34;;;;;;;16.77;14.27;;;;;;;;;;2089707;28;20452;-81
2022/07/02 00:54:53;;;;;;;14.00;12.57;;;;;;;;;;2084075;28;20021;-81
2022/07/02 00:56:12;;;;;;;16.42;14.65;;;;;;;;;;2085934;28;20037;-82
2022/07/02 00:57:32;;;;;;;14.70;13.30;;;;;;;;;;2092952;28;20064;-81
2022/07/02 00:58:51;;;;;;;14.32;12.98;;;;;;;;;;2090347;28;20037;-82
2022/07/02 01:00:10;;;;;;;15.85;13.32;;;;;;;;;;2089679;28;21551;-81
2022/07/02 01:01:29;;;;;;;14.48;13.15;;;;;;;;;;2091562;28;20120;-81
2022/07/02 01:02:48;;;;;;;14.57;13.20;;;;;;;;;;2086872;28;20025;-81
2022/07/02 01:04:08;;;;;;;15.60;13.70;;;;;;;;;;2089848;28;20513;-81
2022/07/02 01:05:27;;;;;;;14.82;13.50;;;;;;;;;;2091618;28;20037;-82
2022/07/02 01:06:48;;;;;;;14.55;13.20;;;;;;;;;;2092142;28;20020;-82
2022/07/02 01:11:24;;;;;;;18.02;12.82;;;;;;;;;;2090619;28;20510;-82
2022/07/02 01:12:51;;;;;;;16.00;12.77;;;;;;;;;;2089541;28;20040;-80
2022/07/02 01:14:11;;;;;;;13.98;12.57;;;;;;;;;;2089634;28;20096;-81
2022/07/02 01:15:30;;;;;;;16.98;14.13;;;;;;;;;;2088131;28;20393;-81
2022/07/02 01:16:48;;;;;;;15.15;13.63;;;;;;;;;;2092216;28;20021;-81
2022/07/02 01:18:07;;;;;;;16.17;13.88;;;;;;;;;;2088952;28;20037;-82
2022/07/02 01:19:27;;;;;;;14.05;12.27;;;;;;;;;;2088089;28;20573;-81
2022/07/02 01:20:46;;;;;;;14.93;13.50;;;;;;;;;;2085865;28;20398;-81
2022/07/02 01:22:12;;;;;;;17.42;14.15;;;;;;;;;;2089181;28;20037;-80
2022/07/02 01:23:33;;;;;;;15.35;13.85;;;;;;;;;;2091109;28;20024;-80
2022/07/02 01:24:53;;;;;;;14.13;12.75;;;;;;;;;;2089722;28;20025;-79
2022/07/02 01:26:12;;;;;;;15.07;13.60;;;;;;;;;;2089070;28;20266;-81
2022/07/02 01:27:31;;;;;;;14.85;13.45;;;;;;;;;;2089347;28;20021;-80
2022/07/02 01:28:50;;;;;;;15.55;13.95;;;;;;;;;;2089267;28;20486;-80
2022/07/02 01:30:09;;;;;;;16.17;14.52;;;;;;;;;;2088748;28;20077;-80
2022/07/02 01:31:28;;;;;;;14.40;12.98;;;;;;;;;;2087439;28;20033;-80
2022/07/02 01:32:47;;;;;;;17.88;13.70;;;;;;;;;;2085477;28;20028;-81
2022/07/02 01:34:05;;;;;;;16.20;14.52;;;;;;;;;;2085213;28;20050;-81
2022/07/02 01:35:24;;;;;;;16.10;14.48;;;;;;;;;;2088522;28;20029;-80
2022/07/02 01:36:43;;;;;;;15.43;13.93;;;;;;;;;;2089406;28;20120;-80
2022/07/02 01:38:02;;;;;;;16.10;14.50;;;;;;;;;;2089683;28;20060;-81
2022/07/02 01:39:25;;;;;;;17.75;15.70;;;;;;;;;;2088924;28;20041;-81
2022/07/02 01:40:44;;;;;;;17.48;15.80;;;;;;;;;;2090158;28;20060;-81
2022/07/02 01:42:03;;;;;;;16.92;15.32;;;;;;;;;;2089637;28;20032;-81
2022/07/02 01:43:22;;;;;;;17.58;15.98;;;;;;;;;;2091264;28;20382;-81
2022/07/02 01:44:43;;;;;;;18.50;16.25;;;;;;;;;;2091029;28;20021;-81
2022/07/02 01:46:02;;;;;;;15.80;14.43;;;;;;;;;;2089367;28;20439;-80
2022/07/02 01:47:20;;;;;;;15.40;13.93;;;;;;;;;;2090438;28;20036;-81
2022/07/02 01:48:39;;;;;;;17.42;14.98;;;;;;;;;;2089968;28;20017;-81
2022/07/02 01:49:58;;;;;;;22.25;15.23;;;;;;;;;;2088925;28;20037;-81
2022/07/02 01:51:17;;;;;;;16.27;14.63;;;;;;;;;;2091095;28;20021;-81
2022/07/02 01:52:36;;;;;;;17.10;14.88;;;;;;;;;;2088771;28;20028;-81
2022/07/02 01:53:55;;;;;;;15.88;14.45;;;;;;;;;;2090489;28;20112;-81
2022/07/02 01:55:14;;;;;;;14.95;13.65;;;;;;;;;;2090520;28;20459;-81
2022/07/02 01:56:33;;;;;;;14.93;13.07;;;;;;;;;;2092415;28;20028;-81
2022/07/02 01:57:52;;;;;;;15.93;14.52;;;;;;;;;;2089947;28;20104;-82
2022/07/02 01:59:11;;;;;;;14.85;13.50;;;;;;;;;;2092482;28;20114;-82
2022/07/02 02:00:30;;;;;;;16.10;14.60;;;;;;;;;;2084189;28;20533;-82
2022/07/02 02:01:49;;;;;;;15.27;13.88;;;;;;;;;;2090227;28;20518;-82
2022/07/02 02:03:08;;;;;;;19.20;16.10;;;;;;;;;;2092101;28;20060;-81
2022/07/02 02:04:27;;;;;;;16.17;14.57;;;;;;;;;;2090929;28;20021;-81
2022/07/02 02:05:53;;;;;;;16.27;14.77;;;;;;;;;;2087314;28;20112;-81
2022/07/02 02:07:12;;;;;;;15.98;14.48;;;;;;;;;;2090458;28;20056;-81
2022/07/02 02:08:31;;;;;;;16.27;14.63;;;;;;;;;;2087450;28;20029;-81
2022/07/02 02:09:50;;;;;;;16.75;15.23;;;;;;;;;;2089159;28;20036;-81
2022/07/02 02:11:09;;;;;;;15.98;14.38;;;;;;;;;;2088509;28;20037;-81
2022/07/02 02:12:28;;;;;;;16.38;14.80;;;;;;;;;;2088612;28;20108;-81
2022/07/02 02:13:47;;;;;;;16.50;14.93;;;;;;;;;;2090447;28;20136;-81
2022/07/02 02:15:06;;;;;;;16.17;14.57;;;;;;;;;;2088998;28;20554;-81
2022/07/02 02:16:25;;;;;;;14.32;13.15;;;;;;;;;;2090168;28;20029;-81
2022/07/02 02:17:45;;;;;;;15.18;13.75;;;;;;;;;;2092724;28;20074;-82
2022/07/02 02:19:04;;;;;;;16.50;14.85;;;;;;;;;;2091128;28;20498;-81
2022/07/02 02:20:23;;;;;;;16.02;14.35;;;;;;;;;;2089705;28;20024;-82
2022/07/02 02:21:42;;;;;;;16.25;14.38;;;;;;;;;;2088402;28;20033;-81
2022/07/02 02:23:04;;;;;;;14.63;13.52;;;;;;;;;;2089797;28;20029;-81
2022/07/02 02:24:23;;;;;;;14.50;13.25;;;;;;;;;;2090644;28;20068;-82
2022/07/02 02:25:42;;;;;;;14.85;13.45;;;;;;;;;;2086932;28;20029;-82
2022/07/02 02:27:01;;;;;;;15.73;14.13;;;;;;;;;;2089155;28;20099;-81
2022/07/02 02:28:20;;;;;;;15.82;14.40;;;;;;;;;;2090320;28;20029;-82
2022/07/02 02:29:39;;;;;;;14.90;13.57;;;;;;;;;;2090251;28;20483;-79
2022/07/02 02:30:58;;;;;;;16.00;13.90;;;;;;;;;;2088758;28;20020;-81
2022/07/02 02:32:16;;;;;;;15.23;14.02;;;;;;;;;;2090456;28;20033;-81
2022/07/02 02:33:36;;;;;;;16.63;15.13;;;;;;;;;;2090712;28;20024;-81
2022/07/02 02:34:54;;;;;;;15.82;14.32;;;;;;;;;;2090832;28;20013;-81
2022/07/02 02:36:13;;;;;;;15.07;13.65;;;;;;;;;;2090273;28;20047;-81
2022/07/02 02:37:32;;;;;;;15.73;14.23;;;;;;;;;;2093044;28;20541;-81
2022/07/02 02:38:51;;;;;;;15.48;14.07;;;;;;;;;;2090015;28;20033;-81
2022/07/02 02:40:10;;;;;;;16.33;14.82;;;;;;;;;;2089458;28;20037;-81
2022/07/02 02:41:29;;;;;;;16.38;14.68;;;;;;;;;;2090762;28;20025;-81
2022/07/02 02:42:48;;;;;;;15.50;14.00;;;;;;;;;;2085236;28;20075;-81
2022/07/02 02:44:07;;;;;;;15.98;14.57;;;;;;;;;;2091621;28;20486;-81
2022/07/02 02:45:26;;;;;;;16.02;13.80;;;;;;;;;;2089938;28;20037;-81
2022/07/02 02:46:45;;;;;;;16.80;15.05;;;;;;;;;;2091787;28;20025;-81
2022/07/02 02:48:04;;;;;;;15.95;14.65;;;;;;;;;;2093997;28;20041;-80
2022/07/02 02:49:23;;;;;;;16.50;14.85;;;;;;;;;;2092891;28;20037;-81
2022/07/02 02:50:43;;;;;;;15.77;14.45;;;;;;;;;;2092660;28;20017;-81
2022/07/02 02:52:02;;;;;;;16.38;14.48;;;;;;;;;;2089717;28;20029;-80
2022/07/02 02:53:21;;;;;;;15.35;14.05;;;;;;;;;;2091705;28;20032;-80
2022/07/02 02:54:40;;;;;;;16.77;15.18;;;;;;;;;;2091887;28;20017;-80
2022/07/02 02:55:59;;;;;;;19.60;15.93;;;;;;;;;;2092233;28;20420;-80
2022/07/02 02:57:18;;;;;;;15.70;14.13;;;;;;;;;;2091143;28;20041;-81
2022/07/02 02:58:37;;;;;;;17.05;14.85;;;;;;;;;;2087277;28;20029;-80
2022/07/02 02:59:56;;;;;;;15.93;14.32;;;;;;;;;;2091514;28;20029;-80
2022/07/02 03:01:15;;;;;;;16.80;15.10;;;;;;;;;;2091981;28;20513;-80
2022/07/02 03:02:34;;;;;;;16.00;14.15;;;;;;;;;;2089312;28;20036;-80
2022/07/02 03:03:53;;;;;;;15.50;14.20;;;;;;;;;;2089961;28;20181;-81
2022/07/02 03:05:12;;;;;;;16.77;14.65;;;;;;;;;;2089365;28;20033;-80
2022/07/02 03:06:30;;;;;;;15.02;13.57;;;;;;;;;;2088164;28;20040;-80
2022/07/02 03:07:49;;;;;;;16.00;14.48;;;;;;;;;;2091325;28;20033;-80
2022/07/02 03:09:08;;;;;;;16.95;14.48;;;;;;;;;;2091777;28;20062;-80
2022/07/02 03:10:27;;;;;;;16.30;14.82;;;;;;;;;;2090417;28;20040;-80
2022/07/02 03:11:46;;;;;;;16.67;15.00;;;;;;;;;;2090237;28;20025;-80
2022/07/02 03:13:05;;;;;;;17.70;15.57;;;;;;;;;;2090653;28;20020;-80
2022/07/02 03:14:24;;;;;;;16.67;14.90;;;;;;;;;;2091005;28;20525;-80
2022/07/02 03:15:43;;;;;;;16.60;15.15;;;;;;;;;;2090798;28;20041;-80
2022/07/02 03:17:02;;;;;;;17.13;15.43;;;;;;;;;;2091080;28;20032;-80
2022/07/02 03:18:21;;;;;;;17.27;15.70;;;;;;;;;;2091605;28;20033;-80
2022/07/02 03:19:40;;;;;;;16.67;15.05;;;;;;;;;;2092311;28;20045;-80
2022/07/02 03:21:23;;;;;;;;;;;;;;;;;;;;;
2022/07/02 03:22:48;;;;;;;16.52;14.65;;;;;;;;;;2090034;28;20584;-82
2022/07/02 03:24:17;;;;;;;17.25;15.43;;;;;;;;;;2093459;28;20134;-80
2022/07/02 03:26:04;;;;;;;15.25;13.88;;;;;;;;;;2087648;28;20037;-82
2022/07/02 03:27:52;;;;;;;17.00;15.32;;;;;;;;;;2091581;28;20037;-83
2022/07/02 03:29:41;;;;;;;17.00;15.43;;;;;;;;;;2091248;28;20044;-82
2022/07/02 03:31:09;;;;;;;17.10;15.23;;;;;;;;;;2087264;28;20029;-82
2022/07/02 03:33:07;;;;;;;;;;;;;;;;;;;;;
2022/07/02 03:34:33;;;;;;;16.65;14.93;;;;;;;;;;2087077;28;20033;-81
2022/07/02 03:35:51;;;;;;;16.75;15.02;;;;;;;;;;2088277;28;20057;-80
2022/07/02 03:37:10;;;;;;;17.38;15.57;;;;;;;;;;2089084;28;20033;-80
2022/07/02 03:38:29;;;;;;;16.35;14.63;;;;;;;;;;2092049;28;20033;-80
2022/07/02 03:39:48;;;;;;;17.75;16.13;;;;;;;;;;2090083;28;20032;-80
2022/07/02 03:41:08;;;;;;;18.60;15.65;;;;;;;;;;2090818;28;20119;-80
2022/07/02 03:42:27;;;;;;;18.58;15.10;;;;;;;;;;2089575;28;20025;-81
2022/07/02 03:43:45;;;;;;;17.30;15.52;;;;;;;;;;2089114;28;20053;-81
2022/07/02 03:45:05;;;;;;;18.02;15.48;;;;;;;;;;2090526;28;20660;-79
2022/07/02 03:46:23;;;;;;;15.60;14.30;;;;;;;;;;2090038;28;20071;-81
2022/07/02 03:47:42;;;;;;;16.60;14.93;;;;;;;;;;2089592;28;20053;-81
2022/07/02 03:49:01;;;;;;;18.70;15.52;;;;;;;;;;2092279;28;20068;-81
2022/07/02 03:50:20;;;;;;;15.90;14.38;;;;;;;;;;2089586;28;20045;-80
2022/07/02 03:51:39;;;;;;;15.60;14.07;;;;;;;;;;2091095;28;20025;-81
2022/07/02 03:52:58;;;;;;;17.48;14.50;;;;;;;;;;2092684;28;20021;-80
2022/07/02 03:54:17;;;;;;;15.50;13.60;;;;;;;;;;2095069;28;20025;-81
2022/07/02 03:55:36;;;;;;;17.95;13.45;;;;;;;;;;2088168;28;20032;-80
2022/07/02 03:56:55;;;;;;;14.18;12.73;;;;;;;;;;2089293;28;20025;-81
2022/07/02 03:58:14;;;;;;;16.80;13.05;;;;;;;;;;2090540;28;20564;-81
2022/07/02 03:59:33;;;;;;;14.65;13.13;;;;;;;;;;2089994;28;20033;-80
2022/07/02 04:00:52;;;;;;;15.13;12.65;;;;;;;;;;2092054;28;20024;-81
2022/07/02 04:02:11;;;;;;;13.95;12.48;;;;;;;;;;2091657;28;20040;-81
2022/07/02 04:03:29;;;;;;;12.77;11.70;;;;;;;;;;2090295;28;20029;-80
2022/07/02 04:04:48;;;;;;;15.23;12.57;;;;;;;;;;2092098;28;20024;-80
2022/07/02 04:06:07;;;;;;;14.60;11.70;;;;;;;;;;2088716;28;20456;-80
2022/07/02 04:07:26;;;;;;;14.95;10.55;;;;;;;;;;2090593;28;20033;-81
2022/07/02 04:08:45;;;;;;;10.98;9.60;;;;;;;;;;2090976;28;20483;-81
2022/07/02 04:10:05;;;;;;;12.10;10.10;;;;;;;;;;2090566;28;20108;-81
2022/07/02 04:11:25;;;;;;;11.30;10.15;;;;;;;;;;2089766;28;20029;-81
2022/07/02 04:12:44;;;;;;;12.35;9.68;;;;;;;;;;2087686;28;20510;-81
2022/07/02 04:14:03;;;;;;;11.57;9.32;;;;;;;;;;2086441;28;20040;-81
2022/07/02 04:15:21;;;;;;;10.48;9.40;;;;;;;;;;2086945;28;20033;-80
2022/07/02 04:16:40;;;;;;;11.32;9.23;;;;;;;;;;2093106;28;20052;-81
2022/07/02 04:17:59;;;;;;;12.40;8.48;;;;;;;;;;2090835;28;20032;-81
2022/07/02 04:19:18;;;;;;;9.68;8.82;;;;;;;;;;2090602;28;20040;-80
2022/07/02 04:20:37;;;;;;;9.88;8.85;;;;;;;;;;2091834;28;20064;-82
2022/07/02 04:21:56;;;;;;;8.82;7.93;;;;;;;;;;2091368;28;20506;-81
2022/07/02 04:23:15;;;;;;;9.50;8.07;;;;;;;;;;2092782;28;20482;-80
2022/07/02 04:24:34;;;;;;;11.55;7.95;;;;;;;;;;2091238;28;20021;-80
2022/07/02 04:25:53;;;;;;;13.25;8.40;;;;;;;;;;2090898;28;20469;-79
2022/07/02 04:27:12;;;;;;;9.20;7.10;;;;;;;;;;2093279;28;20151;-81
2022/07/02 04:28:31;;;;;;;10.57;7.78;;;;;;;;;;2091620;28;20033;-80
2022/07/02 04:29:49;;;;;;;9.20;7.05;;;;;;;;;;2089435;28;20432;-81
2022/07/02 04:31:08;;;;;;;8.18;6.85;;;;;;;;;;2090082;28;20486;-81
2022/07/02 04:32:27;;;;;;;8.77;7.90;;;;;;;;;;2086625;28;20036;-82
2022/07/02 04:33:46;;;;;;;7.32;6.40;;;;;;;;;;2090591;28;20029;-81
2022/07/02 04:35:05;;;;;;;8.77;6.97;;;;;;;;;;2089100;28;21244;-81
2022/07/02 04:36:24;;;;;;;11.13;7.07;;;;;;;;;;2089150;28;20429;-81
2022/07/02 04:37:43;;;;;;;8.93;7.10;;;;;;;;;;2089724;28;20029;-81
2022/07/02 04:39:03;;;;;;;9.60;6.25;;;;;;;;;;2090340;28;20108;-81
2022/07/02 04:40:21;;;;;;;6.63;6.03;;;;;;;;;;2090055;28;20025;-81
2022/07/02 04:41:40;;;;;;;8.10;6.72;;;;;;;;;;2093045;28;20037;-81
2022/07/02 04:42:59;;;;;;;10.23;7.13;;;;;;;;;;2091409;28;20514;-81
2022/07/02 04:44:18;;;;;;;11.57;7.13;;;;;;;;;;2090351;28;20036;-81
2022/07/02 04:45:37;;;;;;;9.52;6.35;;;;;;;;;;2089773;28;20064;-81
2022/07/02 04:46:56;;;;;;;7.63;6.25;;;;;;;;;;2090157;28;20028;-80
2022/07/02 04:48:15;;;;;;;9.25;5.97;;;;;;;;;;2091233;28;20029;-80
2022/07/02 04:49:34;;;;;;;8.10;5.85;;;;;;;;;;2090587;28;20056;-80
2022/07/02 04:50:53;;;;;;;9.48;6.35;;;;;;;;;;2091296;28;20025;-80
2022/07/02 04:52:12;;;;;;;8.07;6.05;;;;;;;;;;2090719;28;20041;-81
2022/07/02 04:53:31;;;;;;;6.53;5.95;;;;;;;;;;2090361;28;20024;-80
2022/07/02 04:54:50;;;;;;;7.05;5.93;;;;;;;;;;2091109;28;20037;-81
2022/07/02 04:56:09;;;;;;;8.70;6.18;;;;;;;;;;2090193;28;20488;-80
2022/07/02 04:57:28;;;;;;;9.60;6.47;;;;;;;;;;2090392;28;20478;-80
2022/07/02 04:58:46;;;;;;;7.88;6.25;;;;;;;;;;2090091;28;20029;-80
2022/07/02 05:00:06;;;;;;;10.43;6.40;;;;;;;;;;2091966;28;20489;-80
2022/07/02 05:01:25;;;;;;;6.97;6.10;;;;;;;;;;2091324;28;20037;-79
2022/07/02 05:02:43;;;;;;;7.93;6.05;;;;;;;;;;2091979;28;20029;-80
2022/07/02 05:04:02;;;;;;;8.05;5.93;;;;;;;;;;2088676;28;20040;-79
2022/07/02 05:05:21;;;;;;;9.00;6.38;;;;;;;;;;2088121;28;20036;-80
2022/07/02 05:06:40;;;;;;;11.48;6.13;;;;;;;;;;2087507;28;20606;-80
2022/07/02 05:07:59;;;;;;;12.57;6.68;;;;;;;;;;2089526;28;20037;-80
2022/07/02 05:09:18;;;;;;;8.57;6.63;;;;;;;;;;2087504;28;20052;-80
2022/07/02 05:10:37;;;;;;;9.65;6.60;;;;;;;;;;2090305;28;20482;-80
2022/07/02 05:11:56;;;;;;;8.75;6.18;;;;;;;;;;2092380;28;20600;-80
2022/07/02 05:13:15;;;;;;;9.50;7.15;;;;;;;;;;2089889;28;20029;-80
2022/07/02 05:14:35;;;;;;;7.95;7.15;;;;;;;;;;2091536;28;20060;-80
2022/07/02 05:15:54;;;;;;;11.05;7.90;;;;;;;;;;2090244;28;20029;-80
2022/07/02 05:17:13;;;;;;;8.70;7.28;;;;;;;;;;2089483;28;20021;-80
2022/07/02 05:18:32;;;;;;;8.45;7.32;;;;;;;;;;2089842;28;20033;-79
2022/07/02 05:19:51;;;;;;;8.02;7.22;;;;;;;;;;2086997;28;20037;-80
2022/07/02 05:21:09;;;;;;;7.60;6.82;;;;;;;;;;2091598;28;20732;-82
2022/07/02 05:22:28;;;;;;;9.25;7.80;;;;;;;;;;2091561;28;20029;-79
2022/07/02 05:23:47;;;;;;;9.52;7.57;;;;;;;;;;2087445;28;20029;-79
2022/07/02 05:25:06;;;;;;;8.60;7.55;;;;;;;;;;2087867;28;20045;-80
2022/07/02 05:26:25;;;;;;;10.23;8.05;;;;;;;;;;2091274;28;20040;-80
2022/07/02 05:27:44;;;;;;;11.82;7.75;;;;;;;;;;2091877;28;20506;-80
2022/07/02 05:29:03;;;;;;;9.77;8.35;;;;;;;;;;2093591;28;20032;-81
2022/07/02 05:30:22;;;;;;;8.68;7.85;;;;;;;;;;2089679;28;20402;-81
2022/07/02 05:31:41;;;;;;;12.88;8.70;;;;;;;;;;2089687;28;20048;-80
2022/07/02 05:33:00;;;;;;;9.55;7.97;;;;;;;;;;2091221;28;20025;-80
2022/07/02 05:34:19;;;;;;;11.88;7.95;;;;;;;;;;2089470;28;20025;-81
2022/07/02 05:35:38;;;;;;;9.25;8.13;;;;;;;;;;2090748;28;20037;-81
2022/07/02 05:36:57;;;;;;;10.20;8.73;;;;;;;;;;2087808;28;20041;-81
2022/07/02 05:38:16;;;;;;;13.15;8.07;;;;;;;;;;2094775;28;20402;-81
2022/07/02 05:39:35;;;;;;;9.45;8.48;;;;;;;;;;2088747;28;20426;-79
2022/07/02 05:40:53;;;;;;;11.80;8.00;;;;;;;;;;2086375;28;20465;-80
2022/07/02 05:42:15;;;;;;;10.88;8.07;;;;;;;;;;2086250;28;20036;-79
2022/07/02 05:43:34;;;;;;;12.88;7.78;;;;;;;;;;2089110;28;20040;-81
2022/07/02 05:44:53;;;;;;;9.40;7.95;;;;;;;;;;2091175;28;20025;-81
2022/07/02 05:46:12;;;;;;;9.38;8.40;;;;;;;;;;2089669;28;20037;-80
2022/07/02 05:47:31;;;;;;;8.73;7.53;;;;;;;;;;2090005;28;20028;-82
2022/07/02 05:48:50;;;;;;;9.75;8.07;;;;;;;;;;2090533;28;20021;-82
2022/07/02 05:50:10;;;;;;;9.48;7.57;;;;;;;;;;2091171;28;20029;-80
2022/07/02 05:51:28;;;;;;;8.30;7.40;;;;;;;;;;2089951;28;20032;-81
2022/07/02 05:52:47;;;;;;;9.43;8.32;;;;;;;;;;2086926;28;20025;-82
2022/07/02 05:54:06;;;;;;;8.77;7.35;;;;;;;;;;2088310;28;20041;-81
2022/07/02 05:55:25;;;;;;;8.52;7.80;;;;;;;;;;2086182;28;20032;-80
2022/07/02 05:56:44;;;;;;;8.95;7.07;;;;;;;;;;2084586;28;20037;-82
2022/07/02 05:58:03;;;;;;;9.23;6.65;;;;;;;;;;2082353;28;20036;-81
2022/07/02 05:59:22;;;;;;;8.10;6.38;;;;;;;;;;2085848;28;20410;-83
2022/07/02 06:00:41;;;;;;;9.90;6.55;;;;;;;;;;2086208;28;20033;-81
2022/07/02 06:02:00;;;;;;;10.07;7.28;;;;;;;;;;2088359;28;20611;-83
2022/07/02 06:03:19;;;;;;;7.07;6.47;;;;;;;;;;2093759;28;20029;-85
2022/07/02 06:04:38;;;;;;;9.63;6.90;;;;;;;;;;2088918;28;20032;-84
2022/07/02 06:07:42;;;;;;;6.70;6.00;;;;;;;;;;2091365;28;20029;-82
2022/07/02 06:09:01;;;;;;;9.57;6.30;;;;;;;;;;2091746;28;20112;-83
2022/07/02 06:10:20;;;;;;;7.07;6.38;;;;;;;;;;2089596;28;20495;-83
2022/07/02 06:11:39;;;;;;;9.52;6.95;;;;;;;;;;2089933;28;20494;-82
2022/07/02 06:12:58;;;;;;;6.60;6.03;;;;;;;;;;2089043;28;20041;-82
2022/07/02 06:14:16;;;;;;;6.97;6.28;;;;;;;;;;2086269;28;20036;-81
2022/07/02 06:15:35;;;;;;;8.32;6.50;;;;;;;;;;2086075;28;20028;-81
2022/07/02 06:16:54;;;;;;;7.25;6.18;;;;;;;;;;2089028;28;20041;-81
2022/07/02 06:18:13;;;;;;;6.68;5.90;;;;;;;;;;2089435;28;20112;-81
2022/07/02 06:19:33;;;;;;;9.95;6.10;;;;;;;;;;2090586;28;20044;-82
2022/07/02 06:20:52;;;;;;;7.93;6.10;;;;;;;;;;2086813;28;20021;-83
2022/07/02 06:22:11;;;;;;;6.63;6.13;;;;;;;;;;2091102;28;20032;-82
2022/07/02 06:23:30;;;;;;;7.22;6.38;;;;;;;;;;2089202;28;20037;-81
2022/07/02 06:24:49;;;;;;;10.15;6.28;;;;;;;;;;2090664;28;20033;-81
2022/07/02 06:26:08;;;;;;;6.95;6.25;;;;;;;;;;2092730;28;20028;-81
2022/07/02 06:27:27;;;;;;;7.28;5.78;;;;;;;;;;2096713;28;20025;-81
2022/07/02 06:28:45;;;;;;;5.75;5.18;;;;;;;;;;2098611;28;20013;-81
2022/07/02 06:30:05;;;;;;;8.40;6.05;;;;;;;;;;2092956;28;20025;-81
2022/07/02 06:31:24;;;;;;;6.50;5.45;;;;;;;;;;2093576;28;20080;-81
2022/07/02 06:32:43;;;;;;;5.88;5.35;;;;;;;;;;2094551;28;20025;-81
2022/07/02 06:34:02;;;;;;;6.53;5.85;;;;;;;;;;2089013;28;20473;-82
2022/07/02 06:35:21;;;;;;;5.43;4.97;;;;;;;;;;2091817;28;20481;-81
2022/07/02 06:36:39;;;;;;;6.32;5.20;;;;;;;;;;2094081;28;20526;-82
2022/07/02 06:37:58;;;;;;;6.45;5.13;;;;;;;;;;2091837;28;20486;-82
2022/07/02 06:39:17;;;;;;;5.65;5.18;;;;;;;;;;2092875;28;20040;-83
2022/07/02 06:40:36;;;;;;;5.35;4.95;;;;;;;;;;2093092;28;20017;-81
2022/07/02 06:43:32;;;;;;;5.30;4.90;;;;;;;;;;2092236;28;20025;-82
2022/07/02 06:44:53;;;;;;;6.25;5.32;;;;;;;;;;2092154;28;20036;-82
2022/07/02 06:46:13;;;;;;;5.10;4.60;;;;;;;;;;2092183;28;20041;-82
2022/07/02 06:47:32;;;;;;;6.20;5.38;;;;;;;;;;2090756;28;20036;-81
2022/07/02 06:48:51;;;;;;;5.25;4.65;;;;;;;;;;2093443;28;20033;-82
2022/07/02 06:50:11;;;;;;;6.20;5.00;;;;;;;;;;2091438;28;20025;-81
2022/07/02 06:51:32;;;;;;;5.88;5.30;;;;;;;;;;2093361;28;20025;-81
2022/07/02 06:52:51;;;;;;;6.32;5.80;;;;;;;;;;2092496;28;20036;-83
2022/07/02 06:54:10;;;;;;;6.88;5.18;;;;;;;;;;2094159;28;20370;-81
2022/07/02 06:55:29;;;;;;;5.50;5.10;;;;;;;;;;2095712;28;20029;-82
2022/07/02 06:56:48;;;;;;;5.80;5.20;;;;;;;;;;2090267;28;20029;-79
2022/07/02 06:58:07;;;;;;;6.43;5.82;;;;;;;;;;2091642;28;20044;-82
2022/07/02 06:59:27;;;;;;;5.63;5.22;;;;;;;;;;2090400;28;20107;-83
2022/07/02 07:00:45;;;;;;;5.95;5.45;;;;;;;;;;2090191;28;20025;-83
2022/07/02 07:02:05;;;;;;;6.55;5.78;;;;;;;;;;2089293;28;20053;-82
2022/07/02 07:03:25;;;;;;;5.78;5.28;;;;;;;;;;2090470;28;20884;-83
2022/07/02 07:04:44;;;;;;;6.53;5.18;;;;;;;;;;2090551;28;20024;-82
2022/07/02 07:06:03;;;;;;;5.70;5.18;;;;;;;;;;2088860;28;20028;-83
2022/07/02 07:07:29;;;;;;;6.70;5.40;;;;;;;;;;2090886;28;20025;-85
2022/07/02 07:08:52;;;;;;;6.05;5.45;;;;;;;;;;2090397;28;20482;-82
2022/07/02 07:10:11;;;;;;;5.82;5.43;;;;;;;;;;2090888;28;20468;-84
2022/07/02 07:11:30;;;;;;;6.15;5.30;;;;;;;;;;2091232;28;20072;-81
2022/07/02 07:12:49;;;;;;;6.28;5.72;;;;;;;;;;2090661;28;20028;-78
2022/07/02 07:14:08;;;;;;;7.18;6.53;;;;;;;;;;2090498;28;20032;-79
2022/07/02 07:15:27;;;;;;;11.07;9.48;;;;;;;;;;2090303;28;20120;-80
2022/07/02 07:16:45;;;;;;;6.78;6.28;;;;;;;;;;2091816;28;20494;-81
2022/07/02 07:18:04;;;;;;;6.68;6.18;;;;;;;;;;2088125;28;20033;-79
2022/07/02 07:19:23;;;;;;;5.88;5.45;;;;;;;;;;2090570;28;20512;-78
2022/07/02 07:20:42;;;;;;;6.63;5.50;;;;;;;;;;2090573;28;20571;-82
2022/07/02 07:22:01;;;;;;;5.30;4.90;;;;;;;;;;2091180;28;20032;-80
2022/07/02 07:23:20;;;;;;;6.45;5.88;;;;;;;;;;2091846;28;20474;-82
2022/07/02 07:24:39;;;;;;;6.10;5.50;;;;;;;;;;2091086;28;20417;-83
2022/07/02 07:25:58;;;;;;;6.68;5.95;;;;;;;;;;2091064;28;20530;-80
2022/07/02 07:27:18;;;;;;;5.68;5.28;;;;;;;;;;2087522;28;20072;-80
2022/07/02 07:28:37;;;;;;;5.93;5.43;;;;;;;;;;2090042;28;20025;-85
2022/07/02 07:29:56;;;;;;;6.68;6.00;;;;;;;;;;2092651;28;20033;-80
2022/07/02 07:31:21;;;;;;;6.32;5.90;;;;;;;;;;2092404;28;20043;-81
2022/07/02 07:32:40;;;;;;;5.85;5.45;;;;;;;;;;2091471;28;20044;-80
2022/07/02 07:34:03;;;;;;;6.82;6.25;;;;;;;;;;2093701;28;20036;-79
2022/07/02 07:35:22;;;;;;;7.00;6.35;;;;;;;;;;2092482;28;20021;-81
2022/07/02 07:36:41;;;;;;;6.40;6.00;;;;;;;;;;2090174;28;20032;-80
2022/07/02 07:38:02;;;;;;;6.55;6.15;;;;;;;;;;2088362;28;20028;-80
2022/07/02 07:39:21;;;;;;;6.85;6.30;;;;;;;;;;2091944;28;20029;-80
2022/07/02 07:40:40;;;;;;;7.03;6.53;;;;;;;;;;2090830;28;20025;-80
2022/07/02 07:41:59;;;;;;;7.55;6.75;;;;;;;;;;2087736;28;20032;-80
2022/07/02 07:43:17;;;;;;;7.88;6.70;;;;;;;;;;2090711;28;20032;-80
2022/07/02 07:44:36;;;;;;;7.13;6.63;;;;;;;;;;2091232;28;20025;-83
2022/07/02 07:45:55;;;;;;;7.75;7.13;;;;;;;;;;2088887;28;20025;-79
2022/07/02 07:47:14;;;;;;;8.10;7.43;;;;;;;;;;2090848;28;20045;-80
2022/07/02 07:48:33;;;;;;;8.13;7.38;;;;;;;;;;2086080;28;20017;-83
2022/07/02 07:49:52;;;;;;;9.82;7.90;;;;;;;;;;2090764;28;20021;-81
2022/07/02 07:51:11;;;;;;;8.35;7.65;;;;;;;;;;2093009;28;20108;-87
2022/07/02 07:52:30;;;;;;;8.05;7.25;;;;;;;;;;2091559;28;20107;-81
2022/07/02 07:53:49;;;;;;;7.72;7.10;;;;;;;;;;2091306;28;20021;-80
2022/07/02 07:55:14;;;;;;;7.47;6.85;;;;;;;;;;2092714;28;20040;-84
2022/07/02 07:56:33;;;;;;;8.77;7.72;;;;;;;;;;2089953;28;20108;-84
2022/07/02 07:57:51;;;;;;;7.60;6.97;;;;;;;;;;2092036;28;20049;-83